createdAt,value
2023-04-22T00:00:54.913Z,9.88
2023-04-22T00:03:24.953Z,8.57
2023-04-22T00:05:51.688Z,8.40
2023-04-22T00:08:18.189Z,7.97
2023-04-22T00:10:44.613Z,10.32
2023-04-22T00:13:11.103Z,8.27
2023-04-22T00:15:37.720Z,11.38
2023-04-22T00:18:04.317Z,10.20
2023-04-22T00:20:33.026Z,7.70
2023-04-22T00:22:59.539Z,10.63
2023-04-22T00:25:26.060Z,8.68
2023-04-22T00:27:52.528Z,10.38
2023-04-22T00:30:19.131Z,8.32
2023-04-22T00:32:45.759Z,9.18
2023-04-22T00:35:12.212Z,10.75
2023-04-22T00:37:38.649Z,6.47
2023-04-22T00:40:06.885Z,10.10
2023-04-22T00:42:33.530Z,10.00
2023-04-22T00:45:00.657Z,7.97
2023-04-22T00:47:28.009Z,8.98
2023-04-22T00:49:55.053Z,8.10
2023-04-22T00:52:21.495Z,9.90
2023-04-22T00:54:49.621Z,9.85
2023-04-22T00:57:17.099Z,9.63
2023-04-22T00:59:44.433Z,8.55
2023-04-22T01:02:11.472Z,11.20
2023-04-22T01:04:38.833Z,8.25
2023-04-22T01:07:05.375Z,10.65
2023-04-22T01:09:31.868Z,10.35
2023-04-22T01:11:58.291Z,7.78
2023-04-22T01:14:25.277Z,9.68
2023-04-22T01:16:53.994Z,9.75
2023-04-22T01:19:20.869Z,9.13
2023-04-22T01:21:49.467Z,8.07
2023-04-22T01:24:15.907Z,8.63
2023-04-22T01:26:42.553Z,8.02
2023-04-22T01:29:09.248Z,10.10
2023-04-22T01:31:37.901Z,8.80
2023-04-22T01:34:04.434Z,8.48
2023-04-22T01:36:32.710Z,10.48
2023-04-22T01:38:59.769Z,8.52
2023-04-22T01:41:26.749Z,8.38
2023-04-22T01:43:54.412Z,8.10
2023-04-22T01:46:20.941Z,8.80
2023-04-22T01:48:51.471Z,8.98
2023-04-22T01:51:21.459Z,8.90
2023-04-22T01:53:48.634Z,7.15
2023-04-22T01:56:15.814Z,10.57
2023-04-22T01:58:42.886Z,10.38
2023-04-22T02:01:10.975Z,8.05
2023-04-22T02:03:37.645Z,9.63
2023-04-22T02:06:04.801Z,7.47
2023-04-22T02:08:31.620Z,9.55
2023-04-22T02:11:00.405Z,7.93
2023-04-22T02:13:34.257Z,8.07
2023-04-22T02:16:01.131Z,11.32
2023-04-22T02:18:27.617Z,7.28
2023-04-22T02:20:54.048Z,9.20
2023-04-22T02:23:20.817Z,7.88
2023-04-22T02:25:51.027Z,7.97
2023-04-22T02:28:18.132Z,7.78
2023-04-22T02:30:47.531Z,8.02
2023-04-22T02:33:13.990Z,7.65
2023-04-22T02:35:40.519Z,9.00
2023-04-22T02:38:07.074Z,6.50
2023-04-22T02:40:33.570Z,8.75
2023-04-22T02:43:00.282Z,9.68
2023-04-22T02:45:26.786Z,8.90
2023-04-22T02:47:53.295Z,8.23
2023-04-22T02:50:19.897Z,9.23
2023-04-22T02:52:46.346Z,7.57
2023-04-22T02:55:12.801Z,9.20
2023-04-22T02:57:39.216Z,10.10
2023-04-22T03:00:06.419Z,10.05
2023-04-22T03:02:33.083Z,9.30
2023-04-22T03:05:00.854Z,8.52
2023-04-22T03:07:27.415Z,10.30
2023-04-22T03:09:55.794Z,9.18
2023-04-22T03:12:22.365Z,9.85
2023-04-22T03:14:48.845Z,7.90
2023-04-22T03:17:15.270Z,10.05
2023-04-22T03:19:43.215Z,10.45
2023-04-22T03:22:10.000Z,8.20
2023-04-22T03:24:36.488Z,11.15
2023-04-22T03:27:03.965Z,10.00
2023-04-22T03:29:30.450Z,9.50
2023-04-22T03:31:56.971Z,9.13
2023-04-22T03:34:23.464Z,9.38
2023-04-22T03:36:49.910Z,11.13
2023-04-22T03:39:16.338Z,8.35
2023-04-22T03:41:42.768Z,9.02
2023-04-22T03:44:09.294Z,10.68
2023-04-22T03:46:35.699Z,9.23
2023-04-22T03:49:02.362Z,9.88
2023-04-22T03:51:29.053Z,11.18
2023-04-22T03:53:55.499Z,10.82
2023-04-22T03:56:21.997Z,9.88
2023-04-22T03:58:48.403Z,9.68
2023-04-22T04:01:14.821Z,10.73
2023-04-22T04:03:41.444Z,9.93
2023-04-22T04:06:08.415Z,10.32
2023-04-22T04:08:34.893Z,8.88
2023-04-22T04:11:01.365Z,12.02
2023-04-22T04:13:32.096Z,11.30
2023-04-22T04:16:00.186Z,10.27
2023-04-22T04:18:27.328Z,10.27
2023-04-22T04:20:53.785Z,12.98
2023-04-22T04:23:20.172Z,11.00
2023-04-22T04:25:46.804Z,10.00
2023-04-22T04:28:13.848Z,10.38
2023-04-22T04:30:41.687Z,11.13
2023-04-22T04:33:08.216Z,11.05
2023-04-22T04:35:36.233Z,12.38
2023-04-22T04:38:02.704Z,11.48
2023-04-22T04:40:29.966Z,11.05
2023-04-22T04:42:57.535Z,10.93
2023-04-22T04:45:24.622Z,13.60
2023-04-22T04:47:52.805Z,10.27
2023-04-22T04:50:22.572Z,11.55
2023-04-22T04:52:49.159Z,9.68
2023-04-22T04:55:16.261Z,11.93
2023-04-22T04:57:45.219Z,11.10
2023-04-22T05:00:13.819Z,10.13
2023-04-22T05:02:41.082Z,11.52
2023-04-22T05:05:08.930Z,12.45
2023-04-22T05:07:38.371Z,12.77
2023-04-22T05:10:05.428Z,9.85
2023-04-22T05:12:31.869Z,13.23
2023-04-22T05:14:58.389Z,9.90
2023-04-22T05:17:25.111Z,11.73
2023-04-22T05:19:51.552Z,11.55
2023-04-22T05:22:18.348Z,11.38
2023-04-22T05:24:44.914Z,10.80
2023-04-22T05:27:12.038Z,11.00
2023-04-22T05:29:38.701Z,10.70
2023-04-22T05:32:08.248Z,12.30
2023-04-22T05:34:35.606Z,13.15
2023-04-22T05:37:05.746Z,22.27
2023-04-22T05:39:32.549Z,26.25
2023-04-22T05:41:59.076Z,27.75
2023-04-22T05:44:25.495Z,26.15
2023-04-22T05:46:51.912Z,18.75
2023-04-22T05:49:18.381Z,16.17
2023-04-22T05:51:44.837Z,16.33
2023-04-22T05:54:11.300Z,13.75
2023-04-22T05:56:37.879Z,13.23
2023-04-22T05:59:04.378Z,12.88
2023-04-22T06:01:30.966Z,13.98
2023-04-22T06:03:57.848Z,14.95
2023-04-22T06:06:24.647Z,11.73
2023-04-22T06:08:51.157Z,12.90
2023-04-22T06:11:18.005Z,14.13
2023-04-22T06:13:44.422Z,16.95
2023-04-22T06:16:10.969Z,15.02
2023-04-22T06:18:38.333Z,16.33
2023-04-22T06:21:05.264Z,21.48
2023-04-22T06:23:31.784Z,24.58
2023-04-22T06:26:01.656Z,23.58
2023-04-22T06:28:28.600Z,23.10
2023-04-22T06:30:55.162Z,22.92
2023-04-22T06:33:21.899Z,16.02
2023-04-22T06:35:48.402Z,15.52
2023-04-22T06:38:15.229Z,16.15
2023-04-22T06:40:41.697Z,13.73
2023-04-22T06:43:08.094Z,16.02
2023-04-22T06:45:34.620Z,24.00
2023-04-22T06:48:01.217Z,25.55
2023-04-22T06:50:27.733Z,24.60
2023-04-22T06:52:54.648Z,25.77
2023-04-22T06:55:21.705Z,22.98
2023-04-22T06:57:48.238Z,22.30
2023-04-22T07:00:14.984Z,22.00
2023-04-22T07:02:41.883Z,23.20
2023-04-22T07:05:08.505Z,19.80
2023-04-22T07:07:34.968Z,20.15
2023-04-22T07:10:01.466Z,21.83
2023-04-22T07:12:27.974Z,21.75
2023-04-22T07:14:54.477Z,15.43
2023-04-22T07:17:22.864Z,16.13
2023-04-22T07:19:49.617Z,17.45
2023-04-22T07:22:16.068Z,16.00
2023-04-22T07:24:42.583Z,17.63
2023-04-22T07:27:09.054Z,17.58
2023-04-22T07:29:35.590Z,17.10
2023-04-22T07:32:02.077Z,15.60
2023-04-22T07:34:28.610Z,17.73
2023-04-22T07:36:55.260Z,13.00
2023-04-22T07:39:22.799Z,11.77
2023-04-22T07:41:49.375Z,15.95
2023-04-22T07:44:18.464Z,13.73
2023-04-22T07:46:45.007Z,11.90
2023-04-22T07:49:13.956Z,13.20
2023-04-22T07:51:41.163Z,14.05
2023-04-22T07:54:07.724Z,12.25
2023-04-22T07:56:34.626Z,16.17
2023-04-22T07:59:01.214Z,12.88
2023-04-22T08:01:27.684Z,15.02
2023-04-22T08:03:54.293Z,14.68
2023-04-22T08:06:20.973Z,15.05
2023-04-22T08:08:47.422Z,13.35
2023-04-22T08:11:13.919Z,11.95
2023-04-22T08:13:40.436Z,11.00
2023-04-22T08:16:07.545Z,9.85
2023-04-22T08:18:34.073Z,11.60
2023-04-22T08:21:02.421Z,10.05
2023-04-22T08:23:28.864Z,10.85
2023-04-22T08:25:55.453Z,9.63
2023-04-22T08:28:21.926Z,11.20
2023-04-22T08:30:48.331Z,9.30
2023-04-22T08:33:14.768Z,9.43
2023-04-22T08:35:41.431Z,7.50
2023-04-22T08:38:08.024Z,6.95
2023-04-22T08:40:35.181Z,7.80
2023-04-22T08:43:02.115Z,8.10
2023-04-22T08:45:29.773Z,9.07
2023-04-22T08:47:57.464Z,7.55
2023-04-22T08:50:24.169Z,7.35
2023-04-22T08:52:50.785Z,7.38
2023-04-22T08:55:17.523Z,7.43
2023-04-22T08:57:44.857Z,7.68
2023-04-22T09:00:12.063Z,7.80
2023-04-22T09:02:44.891Z,6.63
2023-04-22T09:05:13.586Z,7.85
2023-04-22T09:07:41.269Z,7.20
2023-04-22T09:10:08.480Z,5.05
2023-04-22T09:12:34.914Z,5.63
2023-04-22T09:15:01.366Z,5.13
2023-04-22T09:17:33.073Z,4.32
2023-04-22T09:20:00.674Z,4.28
